Terminal Aerodrome Forecast
Issued by NWS

Current Version | Previous Version | Text Only | Print | Product List | Glossary On
Versions: 1 2 3 4 5 6 7 8 9 10 11 12
000
FTUS45 KBOI 191120
TAFBKE
TAF
KBKE 191120Z 1912/2012 30007KT P6SM FEW250
     FM192300 31011G20KT P6SM SKC
     FM200300 29005KT P6SM SKC=

USA.gov is the U.S. government's official web portal to all federal, state and local government web resources and services.